Airfield :
LOGIN :

Register | Disclaimer

   EN    FR    IT 

 










Legend :    VFR   Marginal VFR   IFR   Intensive IFR   Very Intensive IFR
Visi :
Ceiling :
>= 8 km
>= 3000ft
5 to 8 km
1000 to 3000 ft
1500m to 5 km
500 to 1000 ft
800 to 1500m
200 to 500 ft
< 800m
< 200 ft
Symbols :   Thunderstorms  Fog  Heavy snow  Heavy precipitations  Wind > 20 kt
SIGMETs :     Misc.  Thunderstorms  Icing  Turbulence  Mountain Waves  Volcanic Ashes






- Airport Elevation : 161 ft
- IATA code : TKU


EFTU - Turku

CURRENT METAR :
  • 191450Z AUTO 15007KT 120V190 7000 OVC004 07/07 Q1019

EXPIRED METARs :
  • 191420Z AUTO 14007KT 8000 OVC003 07/07 Q1019
  • 191350Z AUTO 15007KT 8000 OVC003 07/07 Q1019 RESHUP
  • 191320Z AUTO 16008KT 120V190 3900 BR OVC003 07/06 Q1018
  • 191250Z AUTO 15009KT 4700 DZ OVC004 07/06 Q1018
  • 191220Z AUTO 14010KT 110V180 5000 -SHRA OVC003 07/06 Q1018

TAF TAF EFTU
Valid from the 19 at 15:00 until the 20 at 15:00 UTC


191422Z 1915/2015 15010KT 8000 BKN008
TEMPO 1915/1917 6000 BKN004
TEMPO 1917/2002 BKN012
BECMG 2002/2004 SCT012 BKN030



MET'MAP, your aeronautical weather chart ! - Copyright ORBIFLY December 2007 - Disclaimer

ORBIFLY MET'MAP TEAM :

Programming & Development : Alexandra Zaïnal
Concept & Development : Baudouin d'Aumeries
Co-Development & Prog : Marc-Olivier Méhu
Technical & hardware support : Manuel Goepfert

Contact : metmap@orbifly.com




SOURCES & CREDITS :

   NOAA